Holcomb, Washington
Current Conditions -  °F | °C
As of 1:05 AM on Sunday 21 Dec 2014 (Local Time) from KHQM Reporting Station
Broken Clouds Broken Clouds  
Wind Chill: 54°   Ceiling: 7000
Heat Index: 54°   Visibility: 7mi
Dew Point: 48°   Wind: 21mph
Humidity: 80%   Direction: 260°W
Pressure: 29.71"   Gusts: 28mph
Location:  46.6563°N, 123.58°W
Report Text: KHQM 210905Z AUTO 26018G24KT 7SM FEW016 SCT032 BKN070 12/09 A2971 RMK AO2 T01220089
Loading
Personal Weather Stations






























Interactive Weather Map New forecast layout! Learn more

10-Day Weather Forecast

Advertisements
Track Severe Weather on mobile